SIS225 EDDS-EDDB
Flight info
| Callsign | SIS225 |
|---|---|
| Flight time | 0h 48m |
| Altitude | 32000 |
| Route | OKIBA4B OKIBA N851 RIMKI Z99 LOHRE/N0513F390 N746 TIKNI T279 TAMEB T278 KLF KLF1R |
| Aircraft | C750/M-SBDE3FGHRWXY/S |
Departure
| Time | 2026-05-05 19:51 |
|---|---|
| Airport | Stuttgart Airport (EDDS) |
Arrival
| Time | 2026-05-05 20:40 |
|---|---|
| Airport | Berlin Brandenburg Airport (EDDB) |
| Time | Latitude | Longitude | Altitude | Speed | Heading |
|---|---|---|---|---|---|
| 2026-05-05 19:31 | 48.68902 | 9.20026 | 1295 ft | 0 kts | 163° |
| 2026-05-05 19:46 | 48.68894 | 9.20030 | 1294 ft | 3 kts | 163° |
| 2026-05-05 19:47 | 48.68857 | 9.20047 | 1292 ft | 8 kts | 160° |
| 2026-05-05 19:47 | 48.68863 | 9.20161 | 1288 ft | 18 kts | 74° |
| 2026-05-05 19:47 | 48.68902 | 9.20370 | 1283 ft | 22 kts | 74° |
| 2026-05-05 19:47 | 48.68947 | 9.20601 | 1277 ft | 24 kts | 73° |
| 2026-05-05 19:48 | 48.68993 | 9.20846 | 1271 ft | 25 kts | 75° |
| 2026-05-05 19:48 | 48.69040 | 9.21102 | 1265 ft | 26 kts | 72° |
| 2026-05-05 19:48 | 48.69090 | 9.21366 | 1259 ft | 27 kts | 73° |
| 2026-05-05 19:48 | 48.69143 | 9.21639 | 1254 ft | 27 kts | 73° |
| 2026-05-05 19:49 | 48.69197 | 9.21917 | 1256 ft | 28 kts | 73° |
| 2026-05-05 19:49 | 48.69251 | 9.22208 | 1247 ft | 29 kts | 74° |
| 2026-05-05 19:49 | 48.69292 | 9.22426 | 1236 ft | 21 kts | 73° |
| 2026-05-05 19:49 | 48.69333 | 9.22642 | 1229 ft | 22 kts | 74° |
| 2026-05-05 19:50 | 48.69376 | 9.22867 | 1225 ft | 23 kts | 74° |
| 2026-05-05 19:50 | 48.69403 | 9.23094 | 1221 ft | 21 kts | 111° |
| 2026-05-05 19:50 | 48.69281 | 9.23189 | 1212 ft | 20 kts | 163° |
| 2026-05-05 19:50 | 48.69184 | 9.23219 | 1209 ft | 10 kts | 199° |
| 2026-05-05 19:51 | 48.69173 | 9.23176 | 1210 ft | 18 kts | 252° |
| 2026-05-05 19:51 | 48.69034 | 9.22444 | 1225 ft | 123 kts | 254° |
| 2026-05-05 19:51 | 48.68749 | 9.20960 | 1460 ft | 159 kts | 252° |
| 2026-05-05 19:51 | 48.68445 | 9.19314 | 2185 ft | 165 kts | 254° |
| 2026-05-05 19:52 | 48.68177 | 9.17567 | 2995 ft | 176 kts | 256° |
| 2026-05-05 19:52 | 48.67919 | 9.15763 | 3928 ft | 177 kts | 256° |
| 2026-05-05 19:52 | 48.67632 | 9.13961 | 4939 ft | 179 kts | 254° |
| 2026-05-05 19:52 | 48.67303 | 9.12070 | 5750 ft | 190 kts | 253° |
| 2026-05-05 19:53 | 48.67127 | 9.10048 | 6587 ft | 202 kts | 272° |
| 2026-05-05 19:53 | 48.67729 | 9.08074 | 7498 ft | 218 kts | 304° |
| 2026-05-05 19:53 | 48.69021 | 9.06741 | 8439 ft | 238 kts | 334° |
| 2026-05-05 19:53 | 48.70629 | 9.06082 | 9533 ft | 237 kts | 338° |
| 2026-05-05 19:54 | 48.72235 | 9.05213 | 10041 ft | 257 kts | 332° |
| 2026-05-05 19:54 | 48.73995 | 9.04158 | 10265 ft | 288 kts | 338° |
| 2026-05-05 19:54 | 48.76134 | 9.04076 | 10255 ft | 332 kts | 9° |
| 2026-05-05 19:54 | 48.78301 | 9.05716 | 10224 ft | 369 kts | 38° |
| 2026-05-05 19:55 | 48.79951 | 9.08739 | 10869 ft | 372 kts | 56° |
| 2026-05-05 19:55 | 48.81308 | 9.12031 | 11530 ft | 376 kts | 53° |
| 2026-05-05 19:55 | 48.83312 | 9.14572 | 12106 ft | 378 kts | 26° |
| 2026-05-05 19:55 | 48.85768 | 9.15951 | 12857 ft | 376 kts | 14° |
| 2026-05-05 19:56 | 48.88291 | 9.17065 | 13514 ft | 381 kts | 14° |
| 2026-05-05 19:56 | 48.90805 | 9.18408 | 14113 ft | 385 kts | 20° |
| 2026-05-05 19:56 | 48.93274 | 9.20065 | 14725 ft | 389 kts | 22° |
| 2026-05-05 19:56 | 48.95768 | 9.21685 | 15352 ft | 391 kts | 20° |
| 2026-05-05 19:57 | 48.98319 | 9.23148 | 15987 ft | 393 kts | 19° |
| 2026-05-05 19:57 | 49.00897 | 9.24638 | 16616 ft | 397 kts | 20° |
| 2026-05-05 19:57 | 49.03436 | 9.26213 | 17263 ft | 400 kts | 21° |
| 2026-05-05 19:57 | 49.06021 | 9.27826 | 17927 ft | 403 kts | 21° |
| 2026-05-05 19:58 | 49.08646 | 9.29404 | 18546 ft | 407 kts | 20° |
| 2026-05-05 19:58 | 49.11291 | 9.30987 | 19155 ft | 410 kts | 21° |
| 2026-05-05 19:58 | 49.13952 | 9.32614 | 19770 ft | 413 kts | 21° |
| 2026-05-05 19:58 | 49.16636 | 9.34265 | 20390 ft | 417 kts | 21° |
| 2026-05-05 19:59 | 49.19343 | 9.35915 | 21001 ft | 421 kts | 21° |
| 2026-05-05 19:59 | 49.22079 | 9.37579 | 21622 ft | 424 kts | 21° |
| 2026-05-05 19:59 | 49.24833 | 9.39264 | 22226 ft | 428 kts | 22° |
| 2026-05-05 19:59 | 49.27609 | 9.40968 | 22834 ft | 431 kts | 22° |
| 2026-05-05 20:00 | 49.30409 | 9.42685 | 23423 ft | 435 kts | 22° |
| 2026-05-05 20:00 | 49.33232 | 9.44417 | 23918 ft | 438 kts | 22° |
| 2026-05-05 20:00 | 49.36035 | 9.46140 | 24414 ft | 441 kts | 22° |
| 2026-05-05 20:00 | 49.38894 | 9.47900 | 24937 ft | 444 kts | 22° |
| 2026-05-05 20:01 | 49.41769 | 9.49672 | 25445 ft | 447 kts | 22° |
| 2026-05-05 20:01 | 49.44668 | 9.51460 | 25951 ft | 450 kts | 22° |
| 2026-05-05 20:01 | 49.47583 | 9.53263 | 26454 ft | 453 kts | 22° |
| 2026-05-05 20:01 | 49.50517 | 9.55077 | 26960 ft | 456 kts | 23° |
| 2026-05-05 20:02 | 49.53470 | 9.56906 | 27464 ft | 459 kts | 23° |
| 2026-05-05 20:02 | 49.56444 | 9.58751 | 27979 ft | 462 kts | 23° |
| 2026-05-05 20:02 | 49.59436 | 9.60610 | 28522 ft | 464 kts | 24° |
| 2026-05-05 20:02 | 49.62446 | 9.62481 | 29065 ft | 467 kts | 24° |
| 2026-05-05 20:03 | 49.65473 | 9.64367 | 29547 ft | 471 kts | 24° |
| 2026-05-05 20:03 | 49.68519 | 9.66267 | 30014 ft | 474 kts | 24° |
| 2026-05-05 20:03 | 49.71580 | 9.68178 | 30423 ft | 477 kts | 24° |
| 2026-05-05 20:03 | 49.74674 | 9.70113 | 30830 ft | 480 kts | 24° |
| 2026-05-05 20:04 | 49.77760 | 9.72044 | 31451 ft | 478 kts | 24° |
| 2026-05-05 20:04 | 49.80839 | 9.73974 | 32052 ft | 476 kts | 25° |
| 2026-05-05 20:04 | 49.83867 | 9.75875 | 32633 ft | 475 kts | 25° |
| 2026-05-05 20:04 | 49.86933 | 9.77804 | 33211 ft | 475 kts | 25° |
| 2026-05-05 20:05 | 49.89997 | 9.79733 | 33800 ft | 475 kts | 25° |
| 2026-05-05 20:05 | 49.93053 | 9.81660 | 34279 ft | 475 kts | 25° |
| 2026-05-05 20:05 | 49.96123 | 9.83599 | 34709 ft | 477 kts | 24° |
| 2026-05-05 20:05 | 49.99195 | 9.85541 | 35151 ft | 478 kts | 24° |
| 2026-05-05 20:06 | 50.02282 | 9.87495 | 35545 ft | 480 kts | 24° |
| 2026-05-05 20:06 | 50.05383 | 9.89461 | 35960 ft | 481 kts | 24° |
| 2026-05-05 20:06 | 50.08483 | 9.91430 | 36447 ft | 482 kts | 23° |
| 2026-05-05 20:06 | 50.11594 | 9.93407 | 36932 ft | 482 kts | 23° |
| 2026-05-05 20:07 | 50.14705 | 9.95387 | 37421 ft | 483 kts | 23° |
| 2026-05-05 20:07 | 50.17775 | 9.97345 | 37920 ft | 484 kts | 22° |
| 2026-05-05 20:07 | 50.20891 | 9.99334 | 38437 ft | 484 kts | 22° |
| 2026-05-05 20:07 | 50.23996 | 10.01319 | 38796 ft | 481 kts | 22° |
| 2026-05-05 20:08 | 50.27138 | 10.03330 | 38802 ft | 493 kts | 22° |
| 2026-05-05 20:08 | 50.33624 | 10.07493 | 38811 ft | 514 kts | 22° |
| 2026-05-05 20:09 | 50.40344 | 10.11817 | 38816 ft | 530 kts | 22° |
| 2026-05-05 20:09 | 50.47246 | 10.16273 | 38811 ft | 541 kts | 22° |
| 2026-05-05 20:10 | 50.54246 | 10.20807 | 38810 ft | 545 kts | 22° |
| 2026-05-05 20:10 | 50.61159 | 10.25737 | 38779 ft | 546 kts | 31° |
| 2026-05-05 20:11 | 50.67054 | 10.33087 | 38782 ft | 543 kts | 47° |
| 2026-05-05 20:11 | 50.71418 | 10.42745 | 38777 ft | 540 kts | 64° |
| 2026-05-05 20:12 | 50.74431 | 10.53555 | 38797 ft | 538 kts | 70° |
| 2026-05-05 20:12 | 50.77571 | 10.64291 | 38785 ft | 540 kts | 63° |
| 2026-05-05 20:13 | 50.81404 | 10.74526 | 38789 ft | 540 kts | 62° |
| 2026-05-05 20:13 | 50.84803 | 10.85044 | 38798 ft | 541 kts | 65° |
| 2026-05-05 20:14 | 50.88419 | 10.95543 | 38812 ft | 544 kts | 63° |
| 2026-05-05 20:14 | 50.91948 | 11.06151 | 38801 ft | 544 kts | 65° |
| 2026-05-05 20:15 | 50.95490 | 11.16744 | 38800 ft | 544 kts | 64° |
| 2026-05-05 20:15 | 50.99032 | 11.27354 | 38791 ft | 544 kts | 65° |
| 2026-05-05 20:16 | 51.02526 | 11.37942 | 38794 ft | 544 kts | 64° |
| 2026-05-05 20:16 | 51.06084 | 11.48662 | 38788 ft | 549 kts | 64° |
| 2026-05-05 20:17 | 51.09603 | 11.59436 | 38793 ft | 549 kts | 64° |
| 2026-05-05 20:17 | 51.13135 | 11.70208 | 38787 ft | 549 kts | 65° |
| 2026-05-05 20:17 | 51.14880 | 11.75583 | 38587 ft | 536 kts | 65° |
| 2026-05-05 20:18 | 51.16572 | 11.80790 | 37798 ft | 520 kts | 65° |
| 2026-05-05 20:18 | 51.18208 | 11.85826 | 37126 ft | 503 kts | 65° |
| 2026-05-05 20:18 | 51.19768 | 11.90653 | 36479 ft | 488 kts | 65° |
| 2026-05-05 20:18 | 51.21431 | 11.95304 | 35838 ft | 481 kts | 58° |
| 2026-05-05 20:19 | 51.23465 | 11.99533 | 35218 ft | 481 kts | 52° |
| 2026-05-05 20:19 | 51.25655 | 12.03608 | 34594 ft | 485 kts | 51° |
| 2026-05-05 20:19 | 51.27836 | 12.07706 | 33955 ft | 483 kts | 52° |
| 2026-05-05 20:19 | 51.29934 | 12.11885 | 33276 ft | 481 kts | 54° |
| 2026-05-05 20:20 | 51.32029 | 12.16087 | 32638 ft | 484 kts | 53° |
| 2026-05-05 20:20 | 51.34175 | 12.20242 | 31987 ft | 486 kts | 52° |
| 2026-05-05 20:20 | 51.36347 | 12.24414 | 31354 ft | 488 kts | 52° |
| 2026-05-05 20:20 | 51.38493 | 12.28635 | 30698 ft | 489 kts | 53° |
| 2026-05-05 20:21 | 51.40629 | 12.32887 | 30055 ft | 491 kts | 53° |
| 2026-05-05 20:21 | 51.42786 | 12.37132 | 29360 ft | 487 kts | 52° |
| 2026-05-05 20:21 | 51.44921 | 12.41301 | 28723 ft | 481 kts | 52° |
| 2026-05-05 20:21 | 51.47024 | 12.45449 | 28093 ft | 477 kts | 53° |
| 2026-05-05 20:22 | 51.49067 | 12.49512 | 27479 ft | 472 kts | 53° |
| 2026-05-05 20:22 | 51.51126 | 12.53597 | 26862 ft | 468 kts | 52° |
| 2026-05-05 20:22 | 51.53169 | 12.57638 | 26252 ft | 464 kts | 52° |
| 2026-05-05 20:22 | 51.55190 | 12.61648 | 25635 ft | 460 kts | 52° |
| 2026-05-05 20:23 | 51.57197 | 12.65649 | 25047 ft | 458 kts | 52° |
| 2026-05-05 20:23 | 51.59185 | 12.69615 | 24450 ft | 454 kts | 52° |
| 2026-05-05 20:23 | 51.61164 | 12.73562 | 23864 ft | 450 kts | 52° |
| 2026-05-05 20:23 | 51.63120 | 12.77472 | 23250 ft | 446 kts | 52° |
| 2026-05-05 20:24 | 51.65053 | 12.81341 | 22636 ft | 441 kts | 52° |
| 2026-05-05 20:24 | 51.66966 | 12.85179 | 22057 ft | 437 kts | 52° |
| 2026-05-05 20:24 | 51.68860 | 12.88982 | 21483 ft | 433 kts | 52° |
| 2026-05-05 20:24 | 51.70737 | 12.92757 | 20918 ft | 429 kts | 52° |
| 2026-05-05 20:25 | 51.72596 | 12.96502 | 20357 ft | 425 kts | 52° |
| 2026-05-05 20:25 | 51.74431 | 13.00202 | 19803 ft | 421 kts | 53° |
| 2026-05-05 20:25 | 51.76226 | 13.03829 | 19262 ft | 417 kts | 53° |
| 2026-05-05 20:25 | 51.78051 | 13.07521 | 18707 ft | 413 kts | 53° |
| 2026-05-05 20:26 | 51.79831 | 13.11128 | 18169 ft | 410 kts | 53° |
| 2026-05-05 20:26 | 51.81587 | 13.14692 | 17598 ft | 408 kts | 53° |
| 2026-05-05 20:26 | 51.83343 | 13.18260 | 17064 ft | 404 kts | 53° |
| 2026-05-05 20:26 | 51.85088 | 13.21807 | 16534 ft | 400 kts | 53° |
| 2026-05-05 20:27 | 51.86816 | 13.25329 | 16007 ft | 397 kts | 53° |
| 2026-05-05 20:27 | 51.88522 | 13.28808 | 15486 ft | 392 kts | 52° |
| 2026-05-05 20:27 | 51.90211 | 13.32258 | 14973 ft | 389 kts | 52° |
| 2026-05-05 20:27 | 51.91880 | 13.35674 | 14463 ft | 385 kts | 52° |
| 2026-05-05 20:28 | 51.93510 | 13.39009 | 13966 ft | 367 kts | 52° |
| 2026-05-05 20:28 | 51.95052 | 13.42167 | 13486 ft | 348 kts | 53° |
| 2026-05-05 20:28 | 51.96513 | 13.45169 | 13024 ft | 330 kts | 53° |
| 2026-05-05 20:28 | 51.97921 | 13.47996 | 12596 ft | 314 kts | 50° |
| 2026-05-05 20:29 | 51.99653 | 13.50016 | 12144 ft | 303 kts | 24° |
| 2026-05-05 20:29 | 52.01621 | 13.50771 | 11783 ft | 289 kts | 1° |
| 2026-05-05 20:29 | 52.03559 | 13.50327 | 11433 ft | 277 kts | 340° |
| 2026-05-05 20:29 | 52.05209 | 13.48868 | 11089 ft | 266 kts | 319° |
| 2026-05-05 20:30 | 52.06441 | 13.46683 | 10762 ft | 260 kts | 305° |
| 2026-05-05 20:30 | 52.07524 | 13.44341 | 10504 ft | 257 kts | 304° |
| 2026-05-05 20:30 | 52.08612 | 13.42013 | 10139 ft | 262 kts | 304° |
| 2026-05-05 20:30 | 52.09704 | 13.39667 | 9816 ft | 258 kts | 305° |
| 2026-05-05 20:31 | 52.10791 | 13.37321 | 9309 ft | 260 kts | 305° |
| 2026-05-05 20:31 | 52.11514 | 13.35761 | 8973 ft | 259 kts | 306° |
| 2026-05-05 20:31 | 52.12970 | 13.32614 | 8129 ft | 263 kts | 306° |
| 2026-05-05 20:31 | 52.13699 | 13.31039 | 7716 ft | 264 kts | 306° |
| 2026-05-05 20:32 | 52.14808 | 13.28642 | 7103 ft | 266 kts | 306° |
| 2026-05-05 20:32 | 52.15915 | 13.26246 | 6728 ft | 259 kts | 306° |
| 2026-05-05 20:32 | 52.16979 | 13.23942 | 6482 ft | 252 kts | 306° |
| 2026-05-05 20:32 | 52.18015 | 13.21668 | 6234 ft | 247 kts | 305° |
| 2026-05-05 20:33 | 52.18641 | 13.19113 | 5902 ft | 242 kts | 281° |
| 2026-05-05 20:33 | 52.19182 | 13.16552 | 5990 ft | 243 kts | 293° |
| 2026-05-05 20:33 | 52.20286 | 13.14474 | 5768 ft | 250 kts | 324° |
| 2026-05-05 20:33 | 52.21812 | 13.13097 | 5171 ft | 255 kts | 334° |
| 2026-05-05 20:34 | 52.23418 | 13.11851 | 4581 ft | 254 kts | 338° |
| 2026-05-05 20:34 | 52.25144 | 13.11603 | 3824 ft | 244 kts | 14° |
| 2026-05-05 20:34 | 52.26638 | 13.12768 | 3146 ft | 241 kts | 33° |
| 2026-05-05 20:34 | 52.28006 | 13.14227 | 3004 ft | 225 kts | 35° |
| 2026-05-05 20:35 | 52.29024 | 13.16081 | 2969 ft | 220 kts | 63° |
| 2026-05-05 20:35 | 52.29608 | 13.18397 | 3015 ft | 222 kts | 69° |
| 2026-05-05 20:35 | 52.30164 | 13.20756 | 3009 ft | 220 kts | 69° |
| 2026-05-05 20:35 | 52.30719 | 13.23096 | 3000 ft | 221 kts | 69° |
| 2026-05-05 20:36 | 52.31270 | 13.25418 | 3010 ft | 223 kts | 69° |
| 2026-05-05 20:36 | 52.31841 | 13.27791 | 2836 ft | 226 kts | 69° |
| 2026-05-05 20:36 | 52.32406 | 13.30168 | 2536 ft | 222 kts | 69° |
| 2026-05-05 20:36 | 52.32960 | 13.32499 | 2238 ft | 216 kts | 69° |
| 2026-05-05 20:37 | 52.33476 | 13.34668 | 1929 ft | 187 kts | 69° |
| 2026-05-05 20:37 | 52.33898 | 13.36448 | 1700 ft | 150 kts | 69° |
| 2026-05-05 20:37 | 52.34240 | 13.37890 | 1511 ft | 123 kts | 68° |
| 2026-05-05 20:37 | 52.34537 | 13.39123 | 1355 ft | 114 kts | 68° |
| 2026-05-05 20:38 | 52.34826 | 13.40324 | 1211 ft | 114 kts | 68° |
| 2026-05-05 20:38 | 52.35114 | 13.41533 | 1054 ft | 117 kts | 67° |
| 2026-05-05 20:38 | 52.35403 | 13.42791 | 934 ft | 118 kts | 67° |
| 2026-05-05 20:38 | 52.35699 | 13.44026 | 749 ft | 117 kts | 65° |
| 2026-05-05 20:39 | 52.35994 | 13.45268 | 605 ft | 116 kts | 65° |
| 2026-05-05 20:39 | 52.36289 | 13.46502 | 416 ft | 117 kts | 65° |
| 2026-05-05 20:39 | 52.36584 | 13.47730 | 282 ft | 115 kts | 65° |
| 2026-05-05 20:39 | 52.36874 | 13.48953 | 158 ft | 112 kts | 65° |
| 2026-05-05 20:40 | 52.37111 | 13.49933 | 151 ft | 74 kts | 69° |
| 2026-05-05 20:40 | 52.37285 | 13.50668 | 151 ft | 64 kts | 68° |
| 2026-05-05 20:40 | 52.37416 | 13.51224 | 151 ft | 34 kts | 70° |
| 2026-05-05 20:40 | 52.37452 | 13.51590 | 154 ft | 32 kts | 94° |
| 2026-05-05 20:41 | 52.37434 | 13.51818 | 151 ft | 17 kts | 99° |
| 2026-05-05 20:41 | 52.37400 | 13.51987 | 151 ft | 16 kts | 136° |
| 2026-05-05 20:41 | 52.37305 | 13.52059 | 151 ft | 15 kts | 160° |
| 2026-05-05 20:41 | 52.37236 | 13.52103 | 151 ft | 7 kts | 158° |
| 2026-05-05 20:42 | 52.37208 | 13.52131 | 151 ft | 4 kts | 146° |
| 2026-05-05 20:42 | 52.37201 | 13.52162 | 151 ft | 2 kts | 77° |
| 2026-05-05 20:42 | 52.37209 | 13.52183 | 151 ft | 2 kts | 63° |
| 2026-05-05 20:42 | 52.37212 | 13.52201 | 151 ft | 2 kts | 72° |
| 2026-05-05 20:43 | 52.37215 | 13.52216 | 151 ft | 0 kts | 70° |